Back to Top

Language: 

My Weather Underground Personal Weather Station Historical Data with Graphs...

Delerius Weather Station Historical Data
Daily Summary for August 13, 2017 Units:  Metric    English   Both
« Previous Day
Next Day »
Daily Weekly Monthly Yearly Custom
  High: Low: Average:
Temperature: 21 °C 9.8 °C 15.8 °C
Dew Point: 11.9 °C 6.9 °C 8.9 °C
Humidity: 93 % 41 % 67 %
Wind Speed: 16.1 km/h 0 km/h 5.3 km/h
Wind Gust: 29 km/h - -
Wind:- - WNW
Pressure: 1020.9 hPa 1018.2 hPa -
Precipitation: 0 mm    
Historical Graphs
 
 
Tabular Data for August 13, 2017
Time Temperature Dew Point Pressure Wind Wind Speed Wind Gust Humidity Rainfall Rate (Hourly) solar Conditions
00:03 12.4 °C 9.8 °C 1018.5 hPa West 4.8 km/h 14.5 km/h 84 % 0 mm 0 W/m2
00:08 12.4 °C 9.9 °C 1018.2 hPa West 3.2 km/h 9.7 km/h 85 % 0 mm 0 W/m2
00:13 12.3 °C 9.8 °C 1018.5 hPa WSW 3.2 km/h 9.7 km/h 85 % 0 mm 0 W/m2
00:18 12.2 °C 9.8 °C 1018.5 hPa WSW 1.6 km/h 8 km/h 85 % 0 mm 0 W/m2
00:23 12.2 °C 9.8 °C 1018.5 hPa WSW 1.6 km/h 8 km/h 85 % 0 mm 0 W/m2
00:28 12.1 °C 9.8 °C 1018.5 hPa WSW 1.6 km/h 8 km/h 86 % 0 mm 0 W/m2
00:33 12 °C 9.7 °C 1018.5 hPa Calm   4.8 km/h 86 % 0 mm 0 W/m2
00:38 11.9 °C 9.6 °C 1018.5 hPa Calm     86 % 0 mm 0 W/m2
00:43 11.8 °C 9.6 °C 1018.5 hPa Calm   3.2 km/h 86 % 0 mm 0 W/m2
00:48 11.7 °C 9.6 °C 1018.5 hPa Calm   3.2 km/h 87 % 0 mm 0 W/m2
00:53 11.6 °C 9.5 °C 1018.5 hPa Calm   1.6 km/h 87 % 0 mm 0 W/m2
00:58 11.4 °C 9.3 °C 1018.5 hPa Calm   3.2 km/h 87 % 0 mm 0 W/m2
01:03 11.3 °C 9.2 °C 1018.5 hPa Calm   3.2 km/h 87 % 0 mm 0 W/m2
01:08 11.2 °C 9.1 °C 1018.5 hPa Calm     87 % 0 mm 0 W/m2
01:13 11.1 °C 9 °C 1018.5 hPa Calm     87 % 0 mm 0 W/m2
01:18 10.9 °C 9 °C 1018.5 hPa Calm     88 % 0 mm 0 W/m2
01:23 10.8 °C 8.9 °C 1018.5 hPa Calm     88 % 0 mm 0 W/m2
01:28 10.7 °C 8.9 °C 1018.5 hPa Calm     89 % 0 mm 0 W/m2
01:33 10.6 °C 8.9 °C 1018.5 hPa Calm     89 % 0 mm 0 W/m2
01:38 10.5 °C 8.8 °C 1018.5 hPa Calm     89 % 0 mm 0 W/m2
01:43 10.4 °C 8.7 °C 1018.5 hPa Calm     89 % 0 mm 0 W/m2
01:48 10.3 °C 8.6 °C 1018.5 hPa Calm   3.2 km/h 89 % 0 mm 0 W/m2
01:53 10.2 °C 8.4 °C 1018.5 hPa Calm   3.2 km/h 89 % 0 mm 0 W/m2
01:58 10.1 °C 8.6 °C 1018.5 hPa WSW 1.6 km/h 8 km/h 90 % 0 mm 0 W/m2
02:03 10.1 °C 8.6 °C 1018.5 hPa WSW 1.6 km/h 8 km/h 90 % 0 mm 0 W/m2
02:08 10 °C 8.4 °C 1018.5 hPa Calm   3.2 km/h 90 % 0 mm 0 W/m2
02:13 9.9 °C 8.3 °C 1018.5 hPa Calm   6.4 km/h 90 % 0 mm 0 W/m2
02:18 9.8 °C 8.4 °C 1018.5 hPa Calm   6.4 km/h 91 % 0 mm 0 W/m2
02:23 9.8 °C 8.4 °C 1018.5 hPa Calm   8 km/h 91 % 0 mm 0 W/m2
02:28 9.8 °C 8.4 °C 1018.5 hPa WSW 1.6 km/h 8 km/h 91 % 0 mm 0 W/m2
02:33 9.8 °C 8.6 °C 1018.5 hPa WSW 3.2 km/h 9.7 km/h 92 % 0 mm 0 W/m2
02:38 9.8 °C 8.6 °C 1018.5 hPa WNW 4.8 km/h 9.7 km/h 92 % 0 mm 0 W/m2
02:43 10 °C 8.9 °C 1018.5 hPa WNW 6.4 km/h 11.3 km/h 93 % 0 mm 0 W/m2
02:48 10.2 °C 9.1 °C 1018.8 hPa WNW 6.4 km/h 12.9 km/h 93 % 0 mm 0 W/m2
02:53 10.3 °C 9.2 °C 1018.5 hPa WNW 6.4 km/h 12.9 km/h 93 % 0 mm 0 W/m2
02:58 10.4 °C 9.3 °C 1018.8 hPa NW 4.8 km/h 11.3 km/h 93 % 0 mm 0 W/m2
03:03 10.4 °C 9.2 °C 1018.8 hPa NW 3.2 km/h 8 km/h 92 % 0 mm 0 W/m2
03:08 10.4 °C 9.2 °C 1018.8 hPa NW 1.6 km/h 9.7 km/h 92 % 0 mm 0 W/m2
03:13 10.4 °C 9.2 °C 1018.8 hPa NW 3.2 km/h 9.7 km/h 92 % 0 mm 0 W/m2
03:18 10.4 °C 9.2 °C 1018.8 hPa WNW 4.8 km/h 9.7 km/h 92 % 0 mm 0 W/m2
03:23 10.4 °C 9 °C 1018.8 hPa WNW 4.8 km/h 9.7 km/h 91 % 0 mm 0 W/m2
03:28 10.3 °C 8.9 °C 1018.8 hPa WNW 4.8 km/h 9.7 km/h 91 % 0 mm 0 W/m2
03:33 10.4 °C 9 °C 1018.8 hPa WNW 4.8 km/h 9.7 km/h 91 % 0 mm 0 W/m2
03:38 10.4 °C 9 °C 1018.8 hPa WNW 3.2 km/h 9.7 km/h 91 % 0 mm 0 W/m2
03:43 10.3 °C 8.9 °C 1018.8 hPa WNW 1.6 km/h 8 km/h 91 % 0 mm 0 W/m2
03:48 10.2 °C 8.6 °C 1018.8 hPa WNW 1.6 km/h 8 km/h 90 % 0 mm 0 W/m2
03:53 10.2 °C 8.8 °C 1018.8 hPa WNW 4.8 km/h 9.7 km/h 91 % 0 mm 0 W/m2
03:58 10.2 °C 8.8 °C 1018.8 hPa WNW 6.4 km/h 11.3 km/h 91 % 0 mm 0 W/m2
04:03 10.3 °C 8.9 °C 1018.8 hPa WNW 6.4 km/h 11.3 km/h 91 % 0 mm 0 W/m2
04:08 10.3 °C 8.9 °C 1018.8 hPa WNW 6.4 km/h 12.9 km/h 91 % 0 mm 0 W/m2
04:14 10.4 °C 9 °C 1018.8 hPa WNW 9.7 km/h 17.7 km/h 91 % 0 mm 0 W/m2
04:19 10.5 °C 9.1 °C 1018.8 hPa WNW 11.3 km/h 17.7 km/h 91 % 0 mm 0 W/m2
04:21 10.6 °C 9.2 °C 1018.8 hPa WNW 11.3 km/h 17.7 km/h 91 % 0 mm 0 W/m2
04:23 10.6 °C 9 °C 1018.8 hPa WNW 11.3 km/h 17.7 km/h 90 % 0 mm 0 W/m2
04:29 10.6 °C 9 °C 1018.8 hPa WNW 11.3 km/h 17.7 km/h 90 % 0 mm 0 W/m2
04:34 10.6 °C 8.9 °C 1019.2 hPa WNW 9.7 km/h 16.1 km/h 89 % 0 mm 0 W/m2
04:39 10.6 °C 8.9 °C 1019.2 hPa WNW 11.3 km/h 16.1 km/h 89 % 0 mm 0 W/m2
04:44 10.6 °C 8.9 °C 1019.2 hPa WNW 11.3 km/h 17.7 km/h 89 % 0 mm 0 W/m2
04:49 10.6 °C 8.9 °C 1019.2 hPa WNW 9.7 km/h 17.7 km/h 89 % 0 mm 0 W/m2
04:54 10.5 °C 8.8 °C 1019.2 hPa WNW 9.7 km/h 17.7 km/h 89 % 0 mm 0 W/m2
04:59 10.5 °C 8.8 °C 1019.2 hPa WNW 9.7 km/h 17.7 km/h 89 % 0 mm 0 W/m2
05:04 10.4 °C 8.7 °C 1019.2 hPa WNW 11.3 km/h 19.3 km/h 89 % 0 mm 0 W/m2
05:09 10.4 °C 8.7 °C 1019.2 hPa WNW 11.3 km/h 20.9 km/h 89 % 0 mm 0 W/m2
05:14 10.4 °C 8.7 °C 1019.2 hPa WNW 11.3 km/h 20.9 km/h 89 % 0 mm 0 W/m2
05:19 10.4 °C 8.7 °C 1019.2 hPa WNW 11.3 km/h 16.1 km/h 89 % 0 mm 0 W/m2
05:24 10.3 °C 8.6 °C 1019.2 hPa WNW 11.3 km/h 16.1 km/h 89 % 0 mm 0 W/m2
05:29 10.2 °C 8.4 °C 1019.2 hPa WNW 9.7 km/h 17.7 km/h 89 % 0 mm 0 W/m2
05:35 10.2 °C 8.4 °C 1019.2 hPa NW 9.7 km/h 17.7 km/h 89 % 0 mm 0 W/m2
05:40 10.2 °C 8.6 °C 1019.2 hPa NW 9.7 km/h 17.7 km/h 90 % 0 mm 5 W/m2
05:45 10.1 °C 8.6 °C 1019.2 hPa NW 9.7 km/h 16.1 km/h 90 % 0 mm 7 W/m2
05:50 10.1 °C 8.6 °C 1019.2 hPa WNW 11.3 km/h 16.1 km/h 90 % 0 mm 9 W/m2
05:55 10.1 °C 8.6 °C 1019.5 hPa WNW 11.3 km/h 16.1 km/h 90 % 0 mm 11 W/m2
06:00 10.1 °C 8.6 °C 1019.5 hPa WNW 9.7 km/h 16.1 km/h 90 % 0 mm 12 W/m2
06:05 10.1 °C 8.6 °C 1019.2 hPa WNW 9.7 km/h 14.5 km/h 90 % 0 mm 14 W/m2
06:10 10.1 °C 8.6 °C 1019.2 hPa West 8 km/h 14.5 km/h 90 % 0 mm 16 W/m2
06:15 10 °C 8.3 °C 1019.5 hPa West 6.4 km/h 12.9 km/h 89 % 0 mm 18 W/m2
06:20 10 °C 8.4 °C 1019.5 hPa WNW 4.8 km/h 11.3 km/h 90 % 0 mm 19 W/m2
06:25 9.9 °C 8.3 °C 1019.5 hPa West 4.8 km/h 12.9 km/h 90 % 0 mm 21 W/m2
06:30 9.9 °C 8.3 °C 1019.5 hPa West 6.4 km/h 12.9 km/h 90 % 0 mm 25 W/m2
06:35 9.9 °C 8.3 °C 1019.5 hPa West 6.4 km/h 11.3 km/h 90 % 0 mm 91 W/m2
06:40 10.1 °C 8.6 °C 1019.5 hPa West 8 km/h 12.9 km/h 90 % 0 mm 105 W/m2
06:45 10.3 °C 8.7 °C 1019.5 hPa WNW 6.4 km/h 12.9 km/h 90 % 0 mm 114 W/m2
06:50 10.6 °C 9 °C 1019.5 hPa WNW 6.4 km/h 12.9 km/h 90 % 0 mm 69 W/m2
06:55 10.8 °C 9.1 °C 1019.5 hPa NW 3.2 km/h 12.9 km/h 89 % 0 mm 42 W/m2
07:00 10.9 °C 9 °C 1019.5 hPa WNW 1.6 km/h 9.7 km/h 88 % 0 mm 49 W/m2
07:05 11.1 °C 9.2 °C 1019.5 hPa NW 1.6 km/h 9.7 km/h 88 % 0 mm 60 W/m2
07:10 11.2 °C 9.1 °C 1019.9 hPa WNW 4.8 km/h 14.5 km/h 87 % 0 mm 77 W/m2
07:15 11.3 °C 9.2 °C 1019.9 hPa WNW 6.4 km/h 14.5 km/h 87 % 0 mm 167 W/m2
07:20 11.6 °C 9.5 °C 1019.9 hPa WNW 8 km/h 14.5 km/h 87 % 0 mm 193 W/m2
07:25 11.9 °C 9.6 °C 1019.9 hPa WNW 6.4 km/h 14.5 km/h 86 % 0 mm 192 W/m2
07:30 12.3 °C 9.8 °C 1019.9 hPa WNW 6.4 km/h 14.5 km/h 85 % 0 mm 200 W/m2
07:35 12.7 °C 9.9 °C 1019.9 hPa NW 8 km/h 14.5 km/h 83 % 0 mm 216 W/m2
07:36 12.8 °C 10 °C 1019.9 hPa WNW 8 km/h 12.9 km/h 83 % 0 mm 213 W/m2
07:41 13 °C 10 °C 1019.9 hPa WNW 8 km/h 14.5 km/h 82 % 0 mm 236 W/m2
07:46 13.1 °C 9.9 °C 1019.9 hPa WNW 9.7 km/h 19.3 km/h 81 % 0 mm 258 W/m2
07:51 13.3 °C 10.1 °C 1019.9 hPa WNW 9.7 km/h 19.3 km/h 81 % 0 mm 272 W/m2
07:56 13.6 °C 10.2 °C 1019.9 hPa West 9.7 km/h 16.1 km/h 80 % 0 mm 288 W/m2
08:01 13.8 °C 10.1 °C 1019.9 hPa WNW 11.3 km/h 22.5 km/h 78 % 0 mm 304 W/m2
08:07 14.1 °C 10.1 °C 1019.9 hPa WNW 12.9 km/h 22.5 km/h 77 % 0 mm 318 W/m2
08:12 14.2 °C 10.2 °C 1020.2 hPa WNW 11.3 km/h 20.9 km/h 77 % 0 mm 332 W/m2
08:17 14.3 °C 10.1 °C 1020.2 hPa West 11.3 km/h 19.3 km/h 76 % 0 mm 346 W/m2
08:22 14.5 °C 10.1 °C 1020.2 hPa WNW 11.3 km/h 19.3 km/h 75 % 0 mm 360 W/m2
08:27 14.8 °C 10.4 °C 1020.2 hPa WNW 9.7 km/h 16.1 km/h 75 % 0 mm 374 W/m2
08:32 15 °C 10.4 °C 1020.2 hPa West 8 km/h 16.1 km/h 74 % 0 mm 388 W/m2
08:37 15.3 °C 10.3 °C 1020.2 hPa WNW 9.7 km/h 17.7 km/h 72 % 0 mm 403 W/m2
08:42 15.6 °C 9.7 °C 1020.2 hPa WNW 11.3 km/h 24.1 km/h 68 % 0 mm 417 W/m2
08:47 15.8 °C 9.9 °C 1020.2 hPa WNW 11.3 km/h 24.1 km/h 68 % 0 mm 432 W/m2
08:52 15.9 °C 9.1 °C 1020.2 hPa WNW 12.9 km/h 29 km/h 64 % 0 mm 443 W/m2
08:57 16 °C 9.4 °C 1020.5 hPa WNW 12.9 km/h 29 km/h 65 % 0 mm 454 W/m2
09:02 16.2 °C 9.4 °C 1020.5 hPa WNW 9.7 km/h 24.1 km/h 64 % 0 mm 473 W/m2
09:07 16.4 °C 9.1 °C 1020.5 hPa WNW 11.3 km/h 24.1 km/h 62 % 0 mm 485 W/m2
09:12 16.4 °C 8.6 °C 1020.5 hPa WNW 14.5 km/h 25.7 km/h 60 % 0 mm 499 W/m2
09:17 16.5 °C 8.4 °C 1020.5 hPa WNW 16.1 km/h 25.7 km/h 59 % 0 mm 510 W/m2
09:22 16.5 °C 8.4 °C 1020.5 hPa WNW 14.5 km/h 25.7 km/h 59 % 0 mm 522 W/m2
09:27 16.7 °C 8.9 °C 1020.5 hPa NW 12.9 km/h 24.1 km/h 60 % 0 mm 534 W/m2
09:32 16.9 °C 8.8 °C 1020.5 hPa NW 12.9 km/h 25.7 km/h 59 % 0 mm 550 W/m2
09:37 17 °C 8.4 °C 1020.5 hPa NW 14.5 km/h 25.7 km/h 57 % 0 mm 541 W/m2
09:42 17 °C 8.4 °C 1020.5 hPa WNW 14.5 km/h 22.5 km/h 57 % 0 mm 554 W/m2
09:47 17.1 °C 8.8 °C 1020.5 hPa WNW 14.5 km/h 25.7 km/h 58 % 0 mm 561 W/m2
09:52 17.2 °C 8.6 °C 1020.5 hPa NW 14.5 km/h 25.7 km/h 57 % 0 mm 594 W/m2
09:57 17.2 °C 8.3 °C 1020.5 hPa WNW 14.5 km/h 25.7 km/h 56 % 0 mm 605 W/m2
10:02 17.4 °C 8.5 °C 1020.5 hPa WNW 14.5 km/h 25.7 km/h 56 % 0 mm 624 W/m2
10:07 17.7 °C 8.8 °C 1020.5 hPa NW 11.3 km/h 20.9 km/h 56 % 0 mm 615 W/m2
10:12 17.9 °C 8.2 °C 1020.9 hPa NW 11.3 km/h 22.5 km/h 53 % 0 mm 647 W/m2
10:17 18 °C 8 °C 1020.5 hPa NW 12.9 km/h 24.1 km/h 52 % 0 mm 650 W/m2
10:22 18.1 °C 8.4 °C 1020.9 hPa NW 12.9 km/h 24.1 km/h 53 % 0 mm 643 W/m2
10:27 18 °C 8 °C 1020.9 hPa WNW 12.9 km/h 22.5 km/h 52 % 0 mm 613 W/m2
10:32 18 °C 8 °C 1020.5 hPa WNW 14.5 km/h 22.5 km/h 52 % 0 mm 686 W/m2
10:37 18.2 °C 8.2 °C 1020.9 hPa WNW 12.9 km/h 19.3 km/h 52 % 0 mm 682 W/m2
10:42 18.4 °C 8.4 °C 1020.5 hPa WNW 11.3 km/h 19.3 km/h 52 % 0 mm 698 W/m2
10:47 18.7 °C 8.9 °C 1020.5 hPa WNW 9.7 km/h 16.1 km/h 53 % 0 mm 670 W/m2
10:52 18.9 °C 8.2 °C 1020.5 hPa NW 9.7 km/h 19.3 km/h 50 % 0 mm 744 W/m2
10:57 18.8 °C 8.2 °C 1020.9 hPa NW 9.7 km/h 19.3 km/h 50 % 0 mm 773 W/m2
11:02 18.9 °C 8.6 °C 1020.9 hPa NW 11.3 km/h 22.5 km/h 51 % 0 mm 802 W/m2
11:07 18.8 °C 7.8 °C 1020.5 hPa WNW 12.9 km/h 24.1 km/h 49 % 0 mm 802 W/m2
11:12 18.9 °C 8.2 °C 1020.5 hPa NW 11.3 km/h 24.1 km/h 50 % 0 mm 795 W/m2
11:17 18.8 °C 8.4 °C 1020.5 hPa NW 8 km/h 16.1 km/h 51 % 0 mm 803 W/m2
11:22 18.9 °C 7.9 °C 1020.5 hPa NNW 9.7 km/h 17.7 km/h 49 % 0 mm 828 W/m2
11:27 18.8 °C 8.2 °C 1020.5 hPa NNW 8 km/h 17.7 km/h 50 % 0 mm 826 W/m2
11:32 19 °C 7.7 °C 1020.5 hPa NW 8 km/h 17.7 km/h 48 % 0 mm 870 W/m2
11:37 19.2 °C 7.9 °C 1020.5 hPa WNW 9.7 km/h 17.7 km/h 48 % 0 mm 861 W/m2
11:42 19.4 °C 8.1 °C 1020.5 hPa WNW 9.7 km/h 19.3 km/h 48 % 0 mm 923 W/m2
11:47 19.6 °C 8.6 °C 1020.5 hPa West 11.3 km/h 20.9 km/h 49 % 0 mm 896 W/m2
11:52 19.6 °C 8 °C 1020.5 hPa West 12.9 km/h 20.9 km/h 47 % 0 mm 912 W/m2
11:57 19.6 °C 7.3 °C 1020.5 hPa WNW 11.3 km/h 20.9 km/h 45 % 0 mm 853 W/m2
12:02 19.8 °C 7.5 °C 1020.5 hPa NW 9.7 km/h 20.9 km/h 45 % 0 mm 889 W/m2
12:07 20 °C 7.4 °C 1020.5 hPa WNW 8 km/h 19.3 km/h 44 % 0 mm 946 W/m2
12:12 20.2 °C 7.2 °C 1020.5 hPa WNW 6.4 km/h 14.5 km/h 43 % 0 mm 253 W/m2
12:18 20.1 °C 7.8 °C 1020.5 hPa WNW 8 km/h 16.1 km/h 45 % 0 mm 958 W/m2
12:23 20.1 °C 7.8 °C 1020.5 hPa WNW 9.7 km/h 20.9 km/h 45 % 0 mm 904 W/m2
12:28 20.1 °C 7.1 °C 1020.5 hPa NW 9.7 km/h 20.9 km/h 43 % 0 mm 239 W/m2
12:33 20.1 °C 7.1 °C 1020.5 hPa NW 9.7 km/h 16.1 km/h 43 % 0 mm 981 W/m2
12:38 20.4 °C 7.7 °C 1020.5 hPa WNW 8 km/h 14.5 km/h 44 % 0 mm 976 W/m2
12:43 20.5 °C 7.2 °C 1020.2 hPa WNW 6.4 km/h 14.5 km/h 42 % 0 mm 928 W/m2
12:48 20.3 °C 7.3 °C 1020.5 hPa WNW 8 km/h 14.5 km/h 43 % 0 mm 928 W/m2
12:53 20.2 °C 7.2 °C 1020.2 hPa WNW 8 km/h 14.5 km/h 43 % 0 mm 867 W/m2
12:58 20.1 °C 7.8 °C 1020.2 hPa WNW 8 km/h 16.1 km/h 45 % 0 mm 893 W/m2
13:03 20.2 °C 7.9 °C 1020.2 hPa NW 6.4 km/h 16.1 km/h 45 % 0 mm 893 W/m2
13:08 20 °C 7.7 °C 1020.2 hPa WNW 6.4 km/h 14.5 km/h 45 % 0 mm 221 W/m2
13:13 19.9 °C 7.6 °C 1020.2 hPa WNW 9.7 km/h 17.7 km/h 45 % 0 mm 276 W/m2
13:18 19.9 °C 7.3 °C 1020.2 hPa WNW 9.7 km/h 17.7 km/h 44 % 0 mm 867 W/m2
13:23 20.1 °C 7.4 °C 1020.2 hPa West 8 km/h 17.7 km/h 44 % 0 mm 807 W/m2
13:28 20.3 °C 7.3 °C 1020.2 hPa WNW 4.8 km/h 14.5 km/h 43 % 0 mm 872 W/m2
13:33 20.4 °C 7.7 °C 1020.2 hPa WNW 3.2 km/h 11.3 km/h 44 % 0 mm 904 W/m2
13:38 20.6 °C 8.2 °C 1020.2 hPa West 6.4 km/h 14.5 km/h 45 % 0 mm 874 W/m2
13:43 20.8 °C 7.8 °C 1020.2 hPa West 11.3 km/h 19.3 km/h 43 % 0 mm 886 W/m2
13:48 20.9 °C 7.8 °C 1020.2 hPa WNW 9.7 km/h 19.3 km/h 43 % 0 mm 826 W/m2
13:53 21 °C 7.9 °C 1020.2 hPa WSW 8 km/h 14.5 km/h 43 % 0 mm 853 W/m2
13:58 20.8 °C 7.4 °C 1020.2 hPa WSW 6.4 km/h 14.5 km/h 42 % 0 mm 274 W/m2
14:03 20.6 °C 7.6 °C 1020.2 hPa WNW 6.4 km/h 12.9 km/h 43 % 0 mm 933 W/m2
14:08 20.8 °C 7.1 °C 1020.2 hPa WNW 9.7 km/h 16.1 km/h 41 % 0 mm 870 W/m2
14:13 20.7 °C 6.9 °C 1020.2 hPa WNW 8 km/h 16.1 km/h 41 % 0 mm 214 W/m2
14:18 20.6 °C 7.2 °C 1020.2 hPa NW 4.8 km/h 12.9 km/h 42 % 0 mm 230 W/m2
14:23 20.3 °C 7.3 °C 1020.2 hPa NW 3.2 km/h 9.7 km/h 43 % 0 mm 302 W/m2
14:28 20.3 °C 7.7 °C 1020.2 hPa WNW 3.2 km/h 12.9 km/h 44 % 0 mm 251 W/m2
14:33 20.1 °C 7.4 °C 1020.2 hPa NNW 6.4 km/h 14.5 km/h 44 % 0 mm 241 W/m2
14:39 19.8 °C 7.5 °C 1020.2 hPa NNW 4.8 km/h 14.5 km/h 45 % 0 mm 260 W/m2
14:44 19.9 °C 6.9 °C 1020.2 hPa West 4.8 km/h 12.9 km/h 43 % 0 mm 253 W/m2
14:49 20.1 °C 7.8 °C 1020.2 hPa West 4.8 km/h 11.3 km/h 45 % 0 mm 744 W/m2
14:50 20.2 °C 7.6 °C 1020.2 hPa West 4.8 km/h 14.5 km/h 44 % 0 mm 786 W/m2
14:55 20.4 °C 7.1 °C 1020.2 hPa West 8 km/h 16.1 km/h 42 % 0 mm 837 W/m2
15:00 20.5 °C 7.5 °C 1020.2 hPa West 11.3 km/h 19.3 km/h 43 % 0 mm 877 W/m2
15:05 20.9 °C 7.8 °C 1020.2 hPa West 11.3 km/h 19.3 km/h 43 % 0 mm 877 W/m2
15:10 20.9 °C 7.5 °C 1020.2 hPa West 11.3 km/h 16.1 km/h 42 % 0 mm 306 W/m2
15:15 20.8 °C 7.8 °C 1020.2 hPa West 9.7 km/h 16.1 km/h 43 % 0 mm 756 W/m2
15:20 20.8 °C 7.4 °C 1020.2 hPa West 9.7 km/h 14.5 km/h 42 % 0 mm 807 W/m2
15:25 20.8 °C 7.4 °C 1020.2 hPa West 9.7 km/h 14.5 km/h 42 % 0 mm 373 W/m2
15:30 20.4 °C 7.4 °C 1020.2 hPa WSW 8 km/h 12.9 km/h 43 % 0 mm 265 W/m2
15:35 20.4 °C 7.7 °C 1020.2 hPa WSW 8 km/h 19.3 km/h 44 % 0 mm 740 W/m2
15:40 20.4 °C 7.1 °C 1019.9 hPa WSW 8 km/h 19.3 km/h 42 % 0 mm 250 W/m2
15:45 20.1 °C 7.4 °C 1019.9 hPa SW 8 km/h 14.5 km/h 44 % 0 mm 788 W/m2
15:46 20.1 °C 7.4 °C 1019.9 hPa SW 8 km/h 14.5 km/h 44 % 0 mm 788 W/m2
15:51 20.2 °C 7.2 °C 1019.9 hPa WSW 8 km/h 12.9 km/h 43 % 0 mm 211 W/m2
15:56 20.2 °C 7.2 °C 1019.9 hPa West 8 km/h 12.9 km/h 43 % 0 mm 185 W/m2
16:01 20.1 °C 7.1 °C 1019.9 hPa West 4.8 km/h 12.9 km/h 43 % 0 mm 197 W/m2
16:06 20 °C 7.4 °C 1019.9 hPa WNW 3.2 km/h 9.7 km/h 44 % 0 mm 221 W/m2
16:11 19.8 °C 7.2 °C 1019.9 hPa WSW 4.8 km/h 11.3 km/h 44 % 0 mm 434 W/m2
16:16 19.8 °C 7.2 °C 1019.9 hPa WSW 4.8 km/h 11.3 km/h 44 % 0 mm 364 W/m2
16:21 19.9 °C 7.6 °C 1019.9 hPa NW 3.2 km/h 9.7 km/h 45 % 0 mm 279 W/m2
16:26 19.9 °C 7.3 °C 1019.9 hPa NNW 1.6 km/h 8 km/h 44 % 0 mm 225 W/m2
16:31 20.1 °C 7.4 °C 1019.9 hPa NW 1.6 km/h 8 km/h 44 % 0 mm 701 W/m2
16:36 20.1 °C 7.4 °C 1019.9 hPa WSW 3.2 km/h 11.3 km/h 44 % 0 mm 670 W/m2
16:41 20.2 °C 7.9 °C 1019.9 hPa SW 3.2 km/h 11.3 km/h 45 % 0 mm 566 W/m2
16:46 20.2 °C 7.2 °C 1019.9 hPa WSW 3.2 km/h 9.7 km/h 43 % 0 mm 195 W/m2
16:51 20.2 °C 7.9 °C 1019.9 hPa SW 4.8 km/h 11.3 km/h 45 % 0 mm 206 W/m2
16:56 19.9 °C 7.6 °C 1019.9 hPa SW 6.4 km/h 12.9 km/h 45 % 0 mm 206 W/m2
17:01 19.7 °C 7.4 °C 1019.5 hPa SW 4.8 km/h 12.9 km/h 45 % 0 mm 227 W/m2
17:06 19.6 °C 7.7 °C 1019.9 hPa SSW 4.8 km/h 8 km/h 46 % 0 mm 204 W/m2
17:12 19.4 °C 7.8 °C 1019.9 hPa SSW 4.8 km/h 11.3 km/h 47 % 0 mm 190 W/m2
17:17 19.3 °C 7.7 °C 1019.9 hPa SSW 4.8 km/h 11.3 km/h 47 % 0 mm 213 W/m2
17:22 19.4 °C 7.8 °C 1019.9 hPa South 3.2 km/h 9.7 km/h 47 % 0 mm 513 W/m2
17:27 19.7 °C 7.7 °C 1019.9 hPa South 4.8 km/h 11.3 km/h 46 % 0 mm 455 W/m2
17:28 19.8 °C 7.8 °C 1019.9 hPa South 4.8 km/h 11.3 km/h 46 % 0 mm 480 W/m2
17:33 19.9 °C 7.6 °C 1019.9 hPa South 4.8 km/h 11.3 km/h 45 % 0 mm 457 W/m2
17:38 19.8 °C 7.8 °C 1019.9 hPa SSW 4.8 km/h 11.3 km/h 46 % 0 mm 209 W/m2
17:43 19.8 °C 7.8 °C 1019.9 hPa SSW 4.8 km/h 11.3 km/h 46 % 0 mm 229 W/m2
17:48 19.8 °C 7.5 °C 1019.9 hPa SW 1.6 km/h 9.7 km/h 45 % 0 mm 371 W/m2
17:53 19.9 °C 7.9 °C 1019.9 hPa Calm   3.2 km/h 46 % 0 mm 120 W/m2
17:58 20 °C 8 °C 1019.5 hPa Calm   1.6 km/h 46 % 0 mm 84 W/m2
18:03 20 °C 8 °C 1019.5 hPa Calm   1.6 km/h 46 % 0 mm 113 W/m2
18:08 19.9 °C 7.9 °C 1019.5 hPa Calm   4.8 km/h 46 % 0 mm 91 W/m2
18:13 19.7 °C 8.4 °C 1019.9 hPa SSW 1.6 km/h 4.8 km/h 48 % 0 mm 100 W/m2
18:18 19.7 °C 8.4 °C 1019.5 hPa Calm   3.2 km/h 48 % 0 mm 109 W/m2
18:20 19.7 °C 8.1 °C 1019.5 hPa Calm   3.2 km/h 47 % 0 mm 107 W/m2
18:25 19.6 °C 8 °C 1019.5 hPa Calm   1.6 km/h 47 % 0 mm 93 W/m2
18:30 19.4 °C 7.8 °C 1019.5 hPa Calm     47 % 0 mm 97 W/m2
18:35 19.3 °C 8 °C 1019.5 hPa Calm   1.6 km/h 48 % 0 mm 98 W/m2
18:40 19.2 °C 8.2 °C 1019.5 hPa Calm   1.6 km/h 49 % 0 mm 95 W/m2
18:45 19.1 °C 7.8 °C 1019.5 hPa Calm   1.6 km/h 48 % 0 mm 88 W/m2
18:50 19.1 °C 8.1 °C 1019.5 hPa Calm   1.6 km/h 49 % 0 mm 90 W/m2
18:55 19 °C 8.1 °C 1019.5 hPa Calm   1.6 km/h 49 % 0 mm 86 W/m2
19:00 19 °C 8.3 °C 1019.5 hPa Calm   1.6 km/h 50 % 0 mm 90 W/m2
19:05 19 °C 8.9 °C 1019.5 hPa Calm   1.6 km/h 52 % 0 mm 79 W/m2
19:10 19 °C 8.3 °C 1019.5 hPa Calm   1.6 km/h 50 % 0 mm 69 W/m2
19:15 18.9 °C 8.2 °C 1019.5 hPa Calm   1.6 km/h 50 % 0 mm 63 W/m2
19:20 18.9 °C 8.6 °C 1019.5 hPa Calm     51 % 0 mm 63 W/m2
19:25 18.7 °C 8.6 °C 1019.5 hPa Calm     52 % 0 mm 56 W/m2
19:30 18.7 °C 8.9 °C 1019.5 hPa Calm   1.6 km/h 53 % 0 mm 47 W/m2
19:35 18.6 °C 9.7 °C 1019.5 hPa Calm   1.6 km/h 56 % 0 mm 44 W/m2
19:40 18.5 °C 9.6 °C 1019.5 hPa Calm     56 % 0 mm 40 W/m2
19:45 18.4 °C 10.5 °C 1019.5 hPa Calm     60 % 0 mm 35 W/m2
19:50 18.2 °C 10.8 °C 1019.5 hPa Calm     62 % 0 mm 32 W/m2
19:55 18.1 °C 10.9 °C 1019.5 hPa Calm     63 % 0 mm 26 W/m2
20:00 17.9 °C 10.3 °C 1019.5 hPa Calm     61 % 0 mm 21 W/m2
20:05 17.8 °C 10.7 °C 1019.5 hPa Calm     63 % 0 mm 18 W/m2
20:10 17.6 °C 10.4 °C 1019.5 hPa Calm     63 % 0 mm 14 W/m2
20:15 17.5 °C 10.4 °C 1019.5 hPa Calm     63 % 0 mm 11 W/m2
20:20 17.5 °C 10.6 °C 1019.5 hPa Calm     64 % 0 mm 7 W/m2
20:25 17.4 °C 11.4 °C 1019.5 hPa Calm     68 % 0 mm 5 W/m2
20:30 17.4 °C 11.7 °C 1019.5 hPa Calm     69 % 0 mm 0 W/m2
20:35 17.3 °C 11.6 °C 1019.5 hPa Calm     69 % 0 mm 0 W/m2
20:41 17.2 °C 11.4 °C 1019.5 hPa Calm     69 % 0 mm 0 W/m2
20:46 17.1 °C 10.9 °C 1019.5 hPa Calm     67 % 0 mm 0 W/m2
20:51 17 °C 10.8 °C 1019.5 hPa Calm     67 % 0 mm 0 W/m2
20:56 16.9 °C 10.5 °C 1019.5 hPa Calm     66 % 0 mm 0 W/m2
21:01 16.8 °C 10.6 °C 1019.5 hPa Calm     67 % 0 mm 0 W/m2
21:06 16.7 °C 11 °C 1019.5 hPa Calm     69 % 0 mm 0 W/m2
21:11 16.6 °C 11.3 °C 1019.5 hPa Calm     71 % 0 mm 0 W/m2
21:16 16.5 °C 11.2 °C 1019.5 hPa Calm     71 % 0 mm 0 W/m2
21:21 16.3 °C 11.2 °C 1019.5 hPa Calm     72 % 0 mm 0 W/m2
21:26 16.2 °C 11.3 °C 1019.5 hPa Calm     73 % 0 mm 0 W/m2
21:31 16.2 °C 11.6 °C 1019.5 hPa Calm     74 % 0 mm 0 W/m2
21:36 16.1 °C 11.7 °C 1019.5 hPa Calm     75 % 0 mm 0 W/m2
21:41 16 °C 11.6 °C 1019.5 hPa Calm     75 % 0 mm 0 W/m2
21:46 15.9 °C 11.7 °C 1019.5 hPa Calm     76 % 0 mm 0 W/m2
21:51 15.8 °C 11.6 °C 1019.5 hPa Calm     76 % 0 mm 0 W/m2
21:56 15.8 °C 11.8 °C 1019.5 hPa Calm     77 % 0 mm 0 W/m2
22:01 15.7 °C 11.5 °C 1019.5 hPa Calm     76 % 0 mm 0 W/m2
22:06 15.6 °C 11.6 °C 1019.5 hPa Calm     77 % 0 mm 0 W/m2
22:11 15.6 °C 11.8 °C 1019.5 hPa Calm     78 % 0 mm 0 W/m2
22:16 15.5 °C 11.7 °C 1019.5 hPa Calm     78 % 0 mm 0 W/m2
22:21 15.4 °C 11.6 °C 1019.5 hPa Calm     78 % 0 mm 0 W/m2
22:26 15.3 °C 11.1 °C 1019.5 hPa Calm     76 % 0 mm 0 W/m2
22:31 15.2 °C 10.8 °C 1019.5 hPa Calm     75 % 0 mm 0 W/m2
22:36 15.1 °C 10.5 °C 1019.5 hPa Calm     74 % 0 mm 0 W/m2
22:41 15.1 °C 10.7 °C 1019.2 hPa Calm     75 % 0 mm 0 W/m2
22:46 15.1 °C 11.1 °C 1019.2 hPa Calm     77 % 0 mm 0 W/m2
22:51 15.2 °C 11.4 °C 1019.2 hPa Calm     78 % 0 mm 0 W/m2
22:56 15.2 °C 11.6 °C 1019.2 hPa Calm     79 % 0 mm 0 W/m2
23:01 15.2 °C 11.9 °C 1019.2 hPa Calm   3.2 km/h 81 % 0 mm 0 W/m2
23:06 15.1 °C 11.9 °C 1019.2 hPa Calm   3.2 km/h 81 % 0 mm 0 W/m2
23:11 15.1 °C 11.9 °C 1019.2 hPa Calm     81 % 0 mm 0 W/m2
23:16 15 °C 11.8 °C 1019.2 hPa Calm     81 % 0 mm 0 W/m2
23:21 14.9 °C 11.7 °C 1019.2 hPa Calm     81 % 0 mm 0 W/m2
23:26 14.8 °C 10.8 °C 1019.2 hPa Calm     77 % 0 mm 0 W/m2
23:31 14.8 °C 10.6 °C 1019.2 hPa Calm     76 % 0 mm 0 W/m2
23:36 14.8 °C 10.8 °C 1019.2 hPa Calm     77 % 0 mm 0 W/m2
23:41 14.8 °C 10.6 °C 1019.2 hPa Calm     76 % 0 mm 0 W/m2
23:46 14.8 °C 10.6 °C 1019.2 hPa Calm     76 % 0 mm 0 W/m2
23:51 14.8 °C 10.4 °C 1019.2 hPa Calm     75 % 0 mm 0 W/m2
23:54 14.8 °C 10.2 °C 1018.8 hPa Calm   1.6 km/h 74 % 0 mm 0 W/m2
23:59 14.9 °C 10.3 °C 1018.8 hPa Calm   1.6 km/h 74 % 0 mm 0 W/m2
Delerius-Weather
Compliments of Weather Underground - 2.25 mb

Data updates at regular intervals.